sensor_id;sensor_type;location;lat;lon;timestamp;P1;durP1;ratioP1;P2;durP2;ratioP2
11328;SDS011;5719;42.714;23.732;2023-04-15T00:01:50;5.28;;;2.70;;
11328;SDS011;5719;42.714;23.732;2023-04-15T00:04:17;3.65;;;2.25;;
11328;SDS011;5719;42.714;23.732;2023-04-15T00:06:48;4.93;;;3.20;;
11328;SDS011;5719;42.714;23.732;2023-04-15T00:09:18;9.27;;;3.40;;
11328;SDS011;5719;42.714;23.732;2023-04-15T00:11:45;5.28;;;3.13;;
11328;SDS011;5719;42.714;23.732;2023-04-15T00:14:12;7.47;;;2.83;;
11328;SDS011;5719;42.714;23.732;2023-04-15T00:16:39;6.43;;;2.85;;
11328;SDS011;5719;42.714;23.732;2023-04-15T00:19:06;5.80;;;3.20;;
11328;SDS011;5719;42.714;23.732;2023-04-15T00:21:33;5.85;;;2.72;;
11328;SDS011;5719;42.714;23.732;2023-04-15T00:24:00;5.88;;;2.75;;
11328;SDS011;5719;42.714;23.732;2023-04-15T00:26:29;7.78;;;2.33;;
11328;SDS011;5719;42.714;23.732;2023-04-15T00:28:56;3.10;;;2.30;;
11328;SDS011;5719;42.714;23.732;2023-04-15T00:31:23;4.75;;;2.35;;
11328;SDS011;5719;42.714;23.732;2023-04-15T00:33:50;3.75;;;2.28;;
11328;SDS011;5719;42.714;23.732;2023-04-15T00:36:17;3.80;;;2.60;;
11328;SDS011;5719;42.714;23.732;2023-04-15T00:38:44;3.08;;;2.05;;
11328;SDS011;5719;42.714;23.732;2023-04-15T00:41:11;4.68;;;2.13;;
11328;SDS011;5719;42.714;23.732;2023-04-15T00:43:39;2.53;;;2.33;;
11328;SDS011;5719;42.714;23.732;2023-04-15T00:46:06;12.13;;;5.65;;
11328;SDS011;5719;42.714;23.732;2023-04-15T00:48:34;7.30;;;3.90;;
11328;SDS011;5719;42.714;23.732;2023-04-15T00:51:03;4.85;;;2.90;;
11328;SDS011;5719;42.714;23.732;2023-04-15T00:53:31;4.75;;;3.22;;
11328;SDS011;5719;42.714;23.732;2023-04-15T00:55:58;7.80;;;3.10;;
11328;SDS011;5719;42.714;23.732;2023-04-15T00:58:25;3.13;;;2.63;;
11328;SDS011;5719;42.714;23.732;2023-04-15T01:00:54;3.60;;;2.67;;
11328;SDS011;5719;42.714;23.732;2023-04-15T01:03:21;4.05;;;2.30;;
11328;SDS011;5719;42.714;23.732;2023-04-15T01:05:48;6.63;;;2.55;;
11328;SDS011;5719;42.714;23.732;2023-04-15T01:08:17;15.88;;;6.53;;
11328;SDS011;5719;42.714;23.732;2023-04-15T01:10:43;9.27;;;4.93;;
11328;SDS011;5719;42.714;23.732;2023-04-15T01:13:10;13.20;;;4.90;;
11328;SDS011;5719;42.714;23.732;2023-04-15T01:15:37;9.45;;;4.47;;
11328;SDS011;5719;42.714;23.732;2023-04-15T01:18:06;8.27;;;3.80;;
11328;SDS011;5719;42.714;23.732;2023-04-15T01:20:33;6.13;;;3.28;;
11328;SDS011;5719;42.714;23.732;2023-04-15T01:23:01;6.55;;;3.10;;
11328;SDS011;5719;42.714;23.732;2023-04-15T01:25:31;4.30;;;2.53;;
11328;SDS011;5719;42.714;23.732;2023-04-15T01:27:59;9.07;;;2.45;;
11328;SDS011;5719;42.714;23.732;2023-04-15T01:30:26;4.95;;;2.85;;
11328;SDS011;5719;42.714;23.732;2023-04-15T01:32:53;5.88;;;2.83;;
11328;SDS011;5719;42.714;23.732;2023-04-15T01:35:20;6.20;;;3.10;;
11328;SDS011;5719;42.714;23.732;2023-04-15T01:37:48;6.72;;;2.80;;
11328;SDS011;5719;42.714;23.732;2023-04-15T01:40:15;5.40;;;2.90;;
11328;SDS011;5719;42.714;23.732;2023-04-15T01:42:43;3.80;;;2.00;;
11328;SDS011;5719;42.714;23.732;2023-04-15T01:45:11;5.47;;;3.80;;
11328;SDS011;5719;42.714;23.732;2023-04-15T01:47:38;5.82;;;3.45;;
11328;SDS011;5719;42.714;23.732;2023-04-15T01:50:05;7.85;;;4.00;;
11328;SDS011;5719;42.714;23.732;2023-04-15T01:52:32;8.10;;;4.28;;
11328;SDS011;5719;42.714;23.732;2023-04-15T01:54:59;6.00;;;2.80;;
11328;SDS011;5719;42.714;23.732;2023-04-15T01:57:26;6.57;;;3.80;;
11328;SDS011;5719;42.714;23.732;2023-04-15T01:59:54;4.70;;;3.35;;
11328;SDS011;5719;42.714;23.732;2023-04-15T02:02:21;6.55;;;3.72;;
11328;SDS011;5719;42.714;23.732;2023-04-15T02:04:48;3.90;;;2.95;;
11328;SDS011;5719;42.714;23.732;2023-04-15T02:07:15;6.10;;;3.80;;
11328;SDS011;5719;42.714;23.732;2023-04-15T02:09:42;8.80;;;3.90;;
11328;SDS011;5719;42.714;23.732;2023-04-15T02:12:10;3.85;;;3.28;;
11328;SDS011;5719;42.714;23.732;2023-04-15T02:14:38;6.18;;;3.42;;
11328;SDS011;5719;42.714;23.732;2023-04-15T02:17:06;4.25;;;2.65;;
11328;SDS011;5719;42.714;23.732;2023-04-15T02:19:33;3.72;;;2.85;;
11328;SDS011;5719;42.714;23.732;2023-04-15T02:22:00;4.68;;;2.97;;
11328;SDS011;5719;42.714;23.732;2023-04-15T02:24:27;4.50;;;3.10;;
11328;SDS011;5719;42.714;23.732;2023-04-15T02:26:55;12.98;;;2.90;;
11328;SDS011;5719;42.714;23.732;2023-04-15T02:29:22;4.80;;;2.67;;
11328;SDS011;5719;42.714;23.732;2023-04-15T02:31:49;4.32;;;3.35;;
11328;SDS011;5719;42.714;23.732;2023-04-15T02:34:17;8.10;;;3.25;;
11328;SDS011;5719;42.714;23.732;2023-04-15T02:36:44;3.88;;;2.63;;
11328;SDS011;5719;42.714;23.732;2023-04-15T02:39:13;3.20;;;2.90;;
11328;SDS011;5719;42.714;23.732;2023-04-15T02:41:42;3.60;;;3.10;;
11328;SDS011;5719;42.714;23.732;2023-04-15T02:44:11;5.93;;;2.75;;
11328;SDS011;5719;42.714;23.732;2023-04-15T02:46:38;4.43;;;3.00;;
11328;SDS011;5719;42.714;23.732;2023-04-15T02:49:06;3.30;;;2.80;;
11328;SDS011;5719;42.714;23.732;2023-04-15T02:51:35;4.97;;;2.70;;
11328;SDS011;5719;42.714;23.732;2023-04-15T02:54:01;5.10;;;3.10;;
11328;SDS011;5719;42.714;23.732;2023-04-15T02:56:28;6.68;;;2.33;;
11328;SDS011;5719;42.714;23.732;2023-04-15T02:58:56;3.55;;;2.40;;
11328;SDS011;5719;42.714;23.732;2023-04-15T03:01:23;7.90;;;3.15;;
11328;SDS011;5719;42.714;23.732;2023-04-15T03:03:50;5.88;;;2.70;;
11328;SDS011;5719;42.714;23.732;2023-04-15T03:06:17;3.28;;;2.53;;
11328;SDS011;5719;42.714;23.732;2023-04-15T03:08:45;3.10;;;2.45;;
11328;SDS011;5719;42.714;23.732;2023-04-15T03:11:13;5.07;;;3.17;;
11328;SDS011;5719;42.714;23.732;2023-04-15T03:13:41;6.78;;;3.47;;
11328;SDS011;5719;42.714;23.732;2023-04-15T03:16:08;5.32;;;3.00;;
11328;SDS011;5719;42.714;23.732;2023-04-15T03:18:35;8.27;;;4.18;;
11328;SDS011;5719;42.714;23.732;2023-04-15T03:21:02;5.35;;;3.22;;
11328;SDS011;5719;42.714;23.732;2023-04-15T03:23:30;12.88;;;7.05;;
11328;SDS011;5719;42.714;23.732;2023-04-15T03:26:00;8.63;;;5.38;;
11328;SDS011;5719;42.714;23.732;2023-04-15T03:28:27;8.38;;;5.53;;
11328;SDS011;5719;42.714;23.732;2023-04-15T03:30:54;10.32;;;5.68;;
11328;SDS011;5719;42.714;23.732;2023-04-15T03:33:21;7.82;;;4.63;;
11328;SDS011;5719;42.714;23.732;2023-04-15T03:35:49;7.05;;;4.30;;
11328;SDS011;5719;42.714;23.732;2023-04-15T03:38:16;5.53;;;3.67;;
11328;SDS011;5719;42.714;23.732;2023-04-15T03:40:44;6.68;;;3.50;;
11328;SDS011;5719;42.714;23.732;2023-04-15T03:43:13;13.93;;;6.55;;
11328;SDS011;5719;42.714;23.732;2023-04-15T03:45:40;9.18;;;5.93;;
11328;SDS011;5719;42.714;23.732;2023-04-15T03:48:07;9.55;;;5.00;;
11328;SDS011;5719;42.714;23.732;2023-04-15T03:50:35;9.38;;;4.82;;
11328;SDS011;5719;42.714;23.732;2023-04-15T03:53:01;5.97;;;4.00;;
11328;SDS011;5719;42.714;23.732;2023-04-15T03:55:28;5.05;;;3.00;;
11328;SDS011;5719;42.714;23.732;2023-04-15T03:57:55;10.88;;;6.75;;
11328;SDS011;5719;42.714;23.732;2023-04-15T04:00:24;10.15;;;5.43;;
11328;SDS011;5719;42.714;23.732;2023-04-15T04:02:50;7.95;;;5.43;;
11328;SDS011;5719;42.714;23.732;2023-04-15T04:05:17;5.93;;;4.30;;
11328;SDS011;5719;42.714;23.732;2023-04-15T04:07:44;5.10;;;2.97;;
11328;SDS011;5719;42.714;23.732;2023-04-15T04:10:11;5.68;;;3.13;;
11328;SDS011;5719;42.714;23.732;2023-04-15T04:12:38;5.57;;;2.97;;
11328;SDS011;5719;42.714;23.732;2023-04-15T04:15:05;3.08;;;2.67;;
11328;SDS011;5719;42.714;23.732;2023-04-15T04:17:34;6.10;;;3.83;;
11328;SDS011;5719;42.714;23.732;2023-04-15T04:20:01;5.10;;;3.30;;
11328;SDS011;5719;42.714;23.732;2023-04-15T04:22:29;4.28;;;2.88;;
11328;SDS011;5719;42.714;23.732;2023-04-15T04:24:56;4.72;;;3.22;;
11328;SDS011;5719;42.714;23.732;2023-04-15T04:27:24;4.30;;;3.13;;
11328;SDS011;5719;42.714;23.732;2023-04-15T04:29:51;5.10;;;3.28;;
11328;SDS011;5719;42.714;23.732;2023-04-15T04:32:18;6.47;;;3.15;;
11328;SDS011;5719;42.714;23.732;2023-04-15T04:34:46;6.68;;;4.63;;
11328;SDS011;5719;42.714;23.732;2023-04-15T04:37:13;7.82;;;4.20;;
11328;SDS011;5719;42.714;23.732;2023-04-15T04:39:40;11.23;;;5.05;;
11328;SDS011;5719;42.714;23.732;2023-04-15T04:42:07;7.35;;;4.88;;
11328;SDS011;5719;42.714;23.732;2023-04-15T04:44:34;7.97;;;5.65;;
11328;SDS011;5719;42.714;23.732;2023-04-15T04:47:01;10.00;;;6.90;;
11328;SDS011;5719;42.714;23.732;2023-04-15T04:49:28;11.57;;;6.78;;
11328;SDS011;5719;42.714;23.732;2023-04-15T04:51:56;13.98;;;8.25;;
11328;SDS011;5719;42.714;23.732;2023-04-15T04:54:23;12.68;;;8.25;;
11328;SDS011;5719;42.714;23.732;2023-04-15T04:56:51;11.05;;;6.70;;
11328;SDS011;5719;42.714;23.732;2023-04-15T04:59:19;10.13;;;6.85;;
11328;SDS011;5719;42.714;23.732;2023-04-15T05:01:45;6.60;;;4.30;;
11328;SDS011;5719;42.714;23.732;2023-04-15T05:04:13;4.50;;;3.53;;
11328;SDS011;5719;42.714;23.732;2023-04-15T05:06:40;4.32;;;3.35;;
11328;SDS011;5719;42.714;23.732;2023-04-15T05:09:08;3.42;;;3.10;;
11328;SDS011;5719;42.714;23.732;2023-04-15T05:11:35;5.80;;;3.40;;
11328;SDS011;5719;42.714;23.732;2023-04-15T05:14:02;5.05;;;2.72;;
11328;SDS011;5719;42.714;23.732;2023-04-15T05:16:29;6.30;;;3.13;;
11328;SDS011;5719;42.714;23.732;2023-04-15T05:18:56;3.92;;;3.10;;
11328;SDS011;5719;42.714;23.732;2023-04-15T05:21:23;3.17;;;2.55;;
11328;SDS011;5719;42.714;23.732;2023-04-15T05:23:50;3.40;;;3.08;;
11328;SDS011;5719;42.714;23.732;2023-04-15T05:26:19;4.18;;;3.08;;
11328;SDS011;5719;42.714;23.732;2023-04-15T05:28:46;3.97;;;2.88;;
11328;SDS011;5719;42.714;23.732;2023-04-15T05:31:13;3.60;;;2.70;;
11328;SDS011;5719;42.714;23.732;2023-04-15T05:33:41;7.22;;;3.00;;
11328;SDS011;5719;42.714;23.732;2023-04-15T05:36:08;4.53;;;2.65;;
11328;SDS011;5719;42.714;23.732;2023-04-15T05:38:35;2.83;;;2.50;;
11328;SDS011;5719;42.714;23.732;2023-04-15T05:41:02;3.78;;;2.63;;
11328;SDS011;5719;42.714;23.732;2023-04-15T05:43:31;5.30;;;2.97;;
11328;SDS011;5719;42.714;23.732;2023-04-15T05:45:58;4.82;;;2.90;;
11328;SDS011;5719;42.714;23.732;2023-04-15T05:48:24;4.28;;;2.53;;
11328;SDS011;5719;42.714;23.732;2023-04-15T05:50:51;5.25;;;2.47;;
11328;SDS011;5719;42.714;23.732;2023-04-15T05:53:19;3.25;;;2.00;;
11328;SDS011;5719;42.714;23.732;2023-04-15T05:55:46;5.28;;;2.20;;
11328;SDS011;5719;42.714;23.732;2023-04-15T05:58:13;3.28;;;1.90;;
11328;SDS011;5719;42.714;23.732;2023-04-15T06:00:41;3.63;;;1.90;;
11328;SDS011;5719;42.714;23.732;2023-04-15T06:03:08;1.80;;;1.60;;
11328;SDS011;5719;42.714;23.732;2023-04-15T06:05:36;1.70;;;1.60;;
11328;SDS011;5719;42.714;23.732;2023-04-15T06:08:03;3.58;;;1.80;;
11328;SDS011;5719;42.714;23.732;2023-04-15T06:10:30;2.47;;;1.50;;
11328;SDS011;5719;42.714;23.732;2023-04-15T06:13:00;4.72;;;1.50;;
11328;SDS011;5719;42.714;23.732;2023-04-15T06:15:27;1.73;;;1.60;;
11328;SDS011;5719;42.714;23.732;2023-04-15T06:17:56;1.90;;;1.65;;
11328;SDS011;5719;42.714;23.732;2023-04-15T06:20:23;4.28;;;1.98;;
11328;SDS011;5719;42.714;23.732;2023-04-15T06:22:50;4.15;;;1.40;;
11328;SDS011;5719;42.714;23.732;2023-04-15T06:25:17;3.30;;;1.45;;
11328;SDS011;5719;42.714;23.732;2023-04-15T06:27:44;2.30;;;1.45;;
11328;SDS011;5719;42.714;23.732;2023-04-15T06:30:11;1.60;;;1.50;;
11328;SDS011;5719;42.714;23.732;2023-04-15T06:32:38;1.75;;;1.63;;
11328;SDS011;5719;42.714;23.732;2023-04-15T06:35:07;6.60;;;1.60;;
11328;SDS011;5719;42.714;23.732;2023-04-15T06:37:34;3.53;;;1.88;;
11328;SDS011;5719;42.714;23.732;2023-04-15T06:40:01;2.58;;;1.50;;
11328;SDS011;5719;42.714;23.732;2023-04-15T06:42:29;1.77;;;1.63;;
11328;SDS011;5719;42.714;23.732;2023-04-15T06:44:56;6.30;;;2.03;;
11328;SDS011;5719;42.714;23.732;2023-04-15T06:47:23;5.47;;;1.90;;
11328;SDS011;5719;42.714;23.732;2023-04-15T06:49:50;4.55;;;1.80;;
11328;SDS011;5719;42.714;23.732;2023-04-15T06:52:18;1.52;;;1.42;;
11328;SDS011;5719;42.714;23.732;2023-04-15T06:54:45;2.08;;;1.60;;
11328;SDS011;5719;42.714;23.732;2023-04-15T06:57:12;2.38;;;1.45;;
11328;SDS011;5719;42.714;23.732;2023-04-15T06:59:39;6.65;;;1.40;;
11328;SDS011;5719;42.714;23.732;2023-04-15T07:02:07;5.03;;;1.30;;
11328;SDS011;5719;42.714;23.732;2023-04-15T07:04:37;2.47;;;1.30;;
11328;SDS011;5719;42.714;23.732;2023-04-15T07:07:04;1.75;;;1.30;;
11328;SDS011;5719;42.714;23.732;2023-04-15T07:09:33;2.13;;;1.30;;
11328;SDS011;5719;42.714;23.732;2023-04-15T07:12:00;2.08;;;1.15;;
11328;SDS011;5719;42.714;23.732;2023-04-15T07:14:27;2.58;;;1.00;;
11328;SDS011;5719;42.714;23.732;2023-04-15T07:16:54;2.25;;;1.23;;
11328;SDS011;5719;42.714;23.732;2023-04-15T07:19:21;2.35;;;1.30;;
11328;SDS011;5719;42.714;23.732;2023-04-15T07:21:48;2.67;;;1.40;;
11328;SDS011;5719;42.714;23.732;2023-04-15T07:24:15;6.05;;;1.20;;
11328;SDS011;5719;42.714;23.732;2023-04-15T07:26:45;5.25;;;1.10;;
11328;SDS011;5719;42.714;23.732;2023-04-15T07:29:12;5.57;;;0.98;;
11328;SDS011;5719;42.714;23.732;2023-04-15T07:31:39;4.38;;;1.10;;
11328;SDS011;5719;42.714;23.732;2023-04-15T07:34:07;3.03;;;1.08;;
11328;SDS011;5719;42.714;23.732;2023-04-15T07:36:34;1.95;;;1.17;;
11328;SDS011;5719;42.714;23.732;2023-04-15T07:39:02;3.20;;;1.20;;
11328;SDS011;5719;42.714;23.732;2023-04-15T07:41:30;3.33;;;1.00;;
11328;SDS011;5719;42.714;23.732;2023-04-15T07:43:58;2.40;;;1.20;;
11328;SDS011;5719;42.714;23.732;2023-04-15T07:46:26;3.30;;;1.50;;
11328;SDS011;5719;42.714;23.732;2023-04-15T07:48:53;3.28;;;1.10;;
11328;SDS011;5719;42.714;23.732;2023-04-15T07:51:20;3.78;;;0.93;;
11328;SDS011;5719;42.714;23.732;2023-04-15T07:53:47;4.03;;;1.20;;
11328;SDS011;5719;42.714;23.732;2023-04-15T07:56:15;2.67;;;1.17;;
11328;SDS011;5719;42.714;23.732;2023-04-15T07:58:42;2.45;;;1.00;;
11328;SDS011;5719;42.714;23.732;2023-04-15T08:01:10;1.42;;;1.00;;
11328;SDS011;5719;42.714;23.732;2023-04-15T08:03:37;4.95;;;1.17;;
11328;SDS011;5719;42.714;23.732;2023-04-15T08:06:04;3.25;;;1.02;;
11328;SDS011;5719;42.714;23.732;2023-04-15T08:08:32;3.42;;;1.20;;
11328;SDS011;5719;42.714;23.732;2023-04-15T08:10:58;3.35;;;1.08;;
11328;SDS011;5719;42.714;23.732;2023-04-15T08:13:25;3.80;;;0.70;;
11328;SDS011;5719;42.714;23.732;2023-04-15T08:16:11;2.95;;;0.80;;
11328;SDS011;5719;42.714;23.732;2023-04-15T08:18:42;2.55;;;0.80;;
11328;SDS011;5719;42.714;23.732;2023-04-15T08:21:09;0.88;;;0.68;;
11328;SDS011;5719;42.714;23.732;2023-04-15T08:23:37;1.73;;;0.70;;
11328;SDS011;5719;42.714;23.732;2023-04-15T08:26:04;3.00;;;1.00;;
11328;SDS011;5719;42.714;23.732;2023-04-15T08:28:31;2.10;;;1.00;;
11328;SDS011;5719;42.714;23.732;2023-04-15T08:30:58;5.03;;;0.88;;
11328;SDS011;5719;42.714;23.732;2023-04-15T08:33:27;3.17;;;0.80;;
11328;SDS011;5719;42.714;23.732;2023-04-15T08:35:54;4.10;;;1.58;;
11328;SDS011;5719;42.714;23.732;2023-04-15T08:38:21;1.60;;;0.90;;
11328;SDS011;5719;42.714;23.732;2023-04-15T08:40:48;2.35;;;0.80;;
11328;SDS011;5719;42.714;23.732;2023-04-15T08:43:17;1.73;;;0.70;;
11328;SDS011;5719;42.714;23.732;2023-04-15T08:45:50;2.88;;;0.90;;
11328;SDS011;5719;42.714;23.732;2023-04-15T08:48:23;2.80;;;0.80;;
11328;SDS011;5719;42.714;23.732;2023-04-15T08:50:55;1.30;;;0.80;;
11328;SDS011;5719;42.714;23.732;2023-04-15T08:53:23;3.05;;;1.10;;
11328;SDS011;5719;42.714;23.732;2023-04-15T08:55:51;7.10;;;0.90;;
11328;SDS011;5719;42.714;23.732;2023-04-15T08:58:20;1.80;;;0.70;;
11328;SDS011;5719;42.714;23.732;2023-04-15T09:00:47;2.22;;;1.10;;
11328;SDS011;5719;42.714;23.732;2023-04-15T09:03:14;3.58;;;0.93;;
11328;SDS011;5719;42.714;23.732;2023-04-15T09:05:42;1.83;;;0.77;;
11328;SDS011;5719;42.714;23.732;2023-04-15T09:08:11;2.90;;;0.60;;
11328;SDS011;5719;42.714;23.732;2023-04-15T09:10:38;1.83;;;0.63;;
11328;SDS011;5719;42.714;23.732;2023-04-15T09:13:05;2.42;;;0.80;;
11328;SDS011;5719;42.714;23.732;2023-04-15T09:15:32;0.90;;;0.60;;
11328;SDS011;5719;42.714;23.732;2023-04-15T09:18:03;0.90;;;0.70;;
11328;SDS011;5719;42.714;23.732;2023-04-15T09:20:33;2.70;;;0.68;;
11328;SDS011;5719;42.714;23.732;2023-04-15T09:23:11;4.13;;;0.73;;
11328;SDS011;5719;42.714;23.732;2023-04-15T09:25:40;3.65;;;0.73;;
11328;SDS011;5719;42.714;23.732;2023-04-15T09:28:07;2.03;;;0.70;;
11328;SDS011;5719;42.714;23.732;2023-04-15T09:30:35;1.33;;;0.63;;
11328;SDS011;5719;42.714;23.732;2023-04-15T09:33:03;3.35;;;0.80;;
11328;SDS011;5719;42.714;23.732;2023-04-15T09:35:32;3.38;;;0.80;;
11328;SDS011;5719;42.714;23.732;2023-04-15T09:38:04;2.00;;;0.82;;
11328;SDS011;5719;42.714;23.732;2023-04-15T09:40:34;1.13;;;0.70;;
11328;SDS011;5719;42.714;23.732;2023-04-15T09:43:02;6.75;;;1.13;;
11328;SDS011;5719;42.714;23.732;2023-04-15T09:45:30;3.13;;;0.70;;
11328;SDS011;5719;42.714;23.732;2023-04-15T09:47:58;2.03;;;0.90;;
11328;SDS011;5719;42.714;23.732;2023-04-15T09:50:40;2.67;;;1.10;;
11328;SDS011;5719;42.714;23.732;2023-04-15T09:53:08;3.42;;;0.70;;
11328;SDS011;5719;42.714;23.732;2023-04-15T09:55:39;2.03;;;1.13;;
11328;SDS011;5719;42.714;23.732;2023-04-15T09:58:16;1.55;;;0.57;;
11328;SDS011;5719;42.714;23.732;2023-04-15T10:00:43;0.70;;;0.57;;
11328;SDS011;5719;42.714;23.732;2023-04-15T10:03:14;1.23;;;0.50;;
11328;SDS011;5719;42.714;23.732;2023-04-15T10:05:44;3.03;;;0.80;;
11328;SDS011;5719;42.714;23.732;2023-04-15T10:08:13;1.73;;;0.65;;
11328;SDS011;5719;42.714;23.732;2023-04-15T10:10:42;0.73;;;0.60;;
11328;SDS011;5719;42.714;23.732;2023-04-15T10:13:10;1.95;;;0.75;;
11328;SDS011;5719;42.714;23.732;2023-04-15T10:15:38;3.63;;;0.85;;
11328;SDS011;5719;42.714;23.732;2023-04-15T10:18:09;2.60;;;0.80;;
11328;SDS011;5719;42.714;23.732;2023-04-15T10:20:38;3.25;;;0.70;;
11328;SDS011;5719;42.714;23.732;2023-04-15T10:23:07;3.15;;;0.80;;
11328;SDS011;5719;42.714;23.732;2023-04-15T10:25:35;2.45;;;0.80;;
11328;SDS011;5719;42.714;23.732;2023-04-15T10:28:04;1.00;;;0.70;;
11328;SDS011;5719;42.714;23.732;2023-04-15T10:30:32;3.35;;;0.80;;
11328;SDS011;5719;42.714;23.732;2023-04-15T10:32:59;1.75;;;0.85;;
11328;SDS011;5719;42.714;23.732;2023-04-15T10:35:28;2.38;;;0.70;;
11328;SDS011;5719;42.714;23.732;2023-04-15T10:37:56;1.50;;;0.88;;
11328;SDS011;5719;42.714;23.732;2023-04-15T10:40:24;1.27;;;0.80;;
11328;SDS011;5719;42.714;23.732;2023-04-15T10:42:54;1.45;;;0.60;;
11328;SDS011;5719;42.714;23.732;2023-04-15T10:45:23;2.30;;;0.77;;
11328;SDS011;5719;42.714;23.732;2023-04-15T10:47:54;3.22;;;0.98;;
11328;SDS011;5719;42.714;23.732;2023-04-15T10:50:24;2.72;;;1.05;;
11328;SDS011;5719;42.714;23.732;2023-04-15T10:52:52;2.95;;;0.88;;
11328;SDS011;5719;42.714;23.732;2023-04-15T10:55:19;3.22;;;0.60;;
11328;SDS011;5719;42.714;23.732;2023-04-15T10:57:50;1.88;;;0.88;;
11328;SDS011;5719;42.714;23.732;2023-04-15T11:00:19;0.95;;;0.77;;
11328;SDS011;5719;42.714;23.732;2023-04-15T11:02:53;3.13;;;0.82;;
11328;SDS011;5719;42.714;23.732;2023-04-15T11:05:22;3.13;;;1.15;;
11328;SDS011;5719;42.714;23.732;2023-04-15T11:07:57;2.03;;;0.80;;
11328;SDS011;5719;42.714;23.732;2023-04-15T11:13:21;2.55;;;0.73;;
11328;SDS011;5719;42.714;23.732;2023-04-15T11:15:53;2.88;;;0.57;;
11328;SDS011;5719;42.714;23.732;2023-04-15T11:18:24;2.42;;;0.90;;
11328;SDS011;5719;42.714;23.732;2023-04-15T11:20:54;3.58;;;0.60;;
11328;SDS011;5719;42.714;23.732;2023-04-15T11:23:27;3.88;;;0.73;;
11328;SDS011;5719;42.714;23.732;2023-04-15T11:25:56;1.77;;;0.67;;
11328;SDS011;5719;42.714;23.732;2023-04-15T11:28:24;1.98;;;1.05;;
11328;SDS011;5719;42.714;23.732;2023-04-15T11:30:52;0.73;;;0.63;;
11328;SDS011;5719;42.714;23.732;2023-04-15T11:33:20;4.30;;;1.10;;
11328;SDS011;5719;42.714;23.732;2023-04-15T11:35:49;2.60;;;1.08;;
11328;SDS011;5719;42.714;23.732;2023-04-15T11:38:18;2.47;;;0.70;;
11328;SDS011;5719;42.714;23.732;2023-04-15T11:40:45;1.63;;;0.95;;
11328;SDS011;5719;42.714;23.732;2023-04-15T11:43:12;1.33;;;0.73;;
11328;SDS011;5719;42.714;23.732;2023-04-15T11:45:49;1.30;;;0.98;;
11328;SDS011;5719;42.714;23.732;2023-04-15T11:48:18;2.22;;;0.88;;
11328;SDS011;5719;42.714;23.732;2023-04-15T11:50:45;0.98;;;0.73;;
11328;SDS011;5719;42.714;23.732;2023-04-15T11:53:22;3.72;;;0.90;;
11328;SDS011;5719;42.714;23.732;2023-04-15T11:55:50;1.58;;;0.60;;
11328;SDS011;5719;42.714;23.732;2023-04-15T11:58:19;1.33;;;0.63;;
11328;SDS011;5719;42.714;23.732;2023-04-15T12:00:48;2.45;;;1.00;;
11328;SDS011;5719;42.714;23.732;2023-04-15T12:03:17;4.07;;;1.15;;
11328;SDS011;5719;42.714;23.732;2023-04-15T12:06:09;3.65;;;0.98;;
11328;SDS011;5719;42.714;23.732;2023-04-15T12:08:50;2.10;;;0.82;;
11328;SDS011;5719;42.714;23.732;2023-04-15T12:11:31;3.17;;;1.10;;
11328;SDS011;5719;42.714;23.732;2023-04-15T12:14:04;1.90;;;0.90;;
11328;SDS011;5719;42.714;23.732;2023-04-15T12:16:33;1.52;;;0.90;;
11328;SDS011;5719;42.714;23.732;2023-04-15T12:19:04;1.42;;;0.63;;
11328;SDS011;5719;42.714;23.732;2023-04-15T12:21:35;2.92;;;0.63;;
11328;SDS011;5719;42.714;23.732;2023-04-15T12:24:04;4.18;;;0.77;;
11328;SDS011;5719;42.714;23.732;2023-04-15T12:26:33;1.13;;;0.63;;
11328;SDS011;5719;42.714;23.732;2023-04-15T12:29:02;2.50;;;1.20;;
11328;SDS011;5719;42.714;23.732;2023-04-15T12:31:31;2.45;;;0.90;;
11328;SDS011;5719;42.714;23.732;2023-04-15T12:33:58;1.25;;;0.70;;
11328;SDS011;5719;42.714;23.732;2023-04-15T12:36:26;1.50;;;0.90;;
11328;SDS011;5719;42.714;23.732;2023-04-15T12:38:55;4.90;;;0.73;;
11328;SDS011;5719;42.714;23.732;2023-04-15T12:41:22;4.38;;;0.80;;
11328;SDS011;5719;42.714;23.732;2023-04-15T12:43:49;1.23;;;0.80;;
11328;SDS011;5719;42.714;23.732;2023-04-15T12:46:16;3.40;;;0.77;;
11328;SDS011;5719;42.714;23.732;2023-04-15T12:48:44;3.85;;;0.85;;
11328;SDS011;5719;42.714;23.732;2023-04-15T12:51:11;3.00;;;0.90;;
11328;SDS011;5719;42.714;23.732;2023-04-15T12:53:39;3.15;;;1.00;;
11328;SDS011;5719;42.714;23.732;2023-04-15T12:56:07;4.10;;;0.70;;
11328;SDS011;5719;42.714;23.732;2023-04-15T12:58:34;2.28;;;1.02;;
11328;SDS011;5719;42.714;23.732;2023-04-15T13:01:01;3.28;;;1.00;;
11328;SDS011;5719;42.714;23.732;2023-04-15T13:03:28;1.75;;;0.75;;
11328;SDS011;5719;42.714;23.732;2023-04-15T13:05:55;1.77;;;0.80;;
11328;SDS011;5719;42.714;23.732;2023-04-15T13:08:22;1.10;;;0.70;;
11328;SDS011;5719;42.714;23.732;2023-04-15T13:10:49;0.98;;;0.80;;
11328;SDS011;5719;42.714;23.732;2023-04-15T13:13:18;1.40;;;0.80;;
11328;SDS011;5719;42.714;23.732;2023-04-15T13:15:45;3.10;;;1.05;;
11328;SDS011;5719;42.714;23.732;2023-04-15T13:18:12;2.28;;;0.70;;
11328;SDS011;5719;42.714;23.732;2023-04-15T13:20:39;0.95;;;0.70;;
11328;SDS011;5719;42.714;23.732;2023-04-15T13:23:06;1.25;;;0.80;;
11328;SDS011;5719;42.714;23.732;2023-04-15T13:25:33;3.50;;;0.70;;
11328;SDS011;5719;42.714;23.732;2023-04-15T13:28:00;3.08;;;0.80;;
11328;SDS011;5719;42.714;23.732;2023-04-15T13:30:28;2.28;;;0.68;;
11328;SDS011;5719;42.714;23.732;2023-04-15T13:32:55;1.70;;;0.60;;
11328;SDS011;5719;42.714;23.732;2023-04-15T13:35:22;3.95;;;1.15;;
11328;SDS011;5719;42.714;23.732;2023-04-15T13:37:49;2.42;;;0.80;;
11328;SDS011;5719;42.714;23.732;2023-04-15T13:40:16;1.27;;;0.90;;
11328;SDS011;5719;42.714;23.732;2023-04-15T13:42:46;1.80;;;0.50;;
11328;SDS011;5719;42.714;23.732;2023-04-15T13:45:13;4.10;;;0.95;;
11328;SDS011;5719;42.714;23.732;2023-04-15T13:47:41;2.88;;;0.90;;
11328;SDS011;5719;42.714;23.732;2023-04-15T13:50:09;1.50;;;0.82;;
11328;SDS011;5719;42.714;23.732;2023-04-15T13:52:36;2.75;;;0.95;;
11328;SDS011;5719;42.714;23.732;2023-04-15T13:55:03;1.13;;;0.68;;
11328;SDS011;5719;42.714;23.732;2023-04-15T13:57:31;1.10;;;0.80;;
11328;SDS011;5719;42.714;23.732;2023-04-15T13:59:58;1.23;;;0.60;;
11328;SDS011;5719;42.714;23.732;2023-04-15T14:02:25;3.42;;;0.60;;
11328;SDS011;5719;42.714;23.732;2023-04-15T14:04:53;1.02;;;0.80;;
11328;SDS011;5719;42.714;23.732;2023-04-15T14:07:20;1.50;;;0.80;;
11328;SDS011;5719;42.714;23.732;2023-04-15T14:09:48;1.77;;;0.80;;
11328;SDS011;5719;42.714;23.732;2023-04-15T14:12:14;1.42;;;0.60;;
11328;SDS011;5719;42.714;23.732;2023-04-15T14:14:41;4.40;;;0.95;;
11328;SDS011;5719;42.714;23.732;2023-04-15T14:17:08;1.00;;;0.43;;
11328;SDS011;5719;42.714;23.732;2023-04-15T14:19:35;2.30;;;0.70;;
11328;SDS011;5719;42.714;23.732;2023-04-15T14:22:04;5.65;;;0.60;;
11328;SDS011;5719;42.714;23.732;2023-04-15T14:24:31;1.95;;;0.80;;
11328;SDS011;5719;42.714;23.732;2023-04-15T14:26:58;4.25;;;0.70;;
11328;SDS011;5719;42.714;23.732;2023-04-15T14:29:26;1.25;;;0.50;;
11328;SDS011;5719;42.714;23.732;2023-04-15T14:31:53;2.08;;;0.65;;
11328;SDS011;5719;42.714;23.732;2023-04-15T14:34:21;4.38;;;1.27;;
11328;SDS011;5719;42.714;23.732;2023-04-15T14:36:49;2.15;;;1.10;;
11328;SDS011;5719;42.714;23.732;2023-04-15T14:39:18;3.97;;;0.98;;
11328;SDS011;5719;42.714;23.732;2023-04-15T14:41:45;4.88;;;1.95;;
11328;SDS011;5719;42.714;23.732;2023-04-15T14:44:12;2.17;;;0.93;;
11328;SDS011;5719;42.714;23.732;2023-04-15T14:46:39;3.45;;;0.70;;
11328;SDS011;5719;42.714;23.732;2023-04-15T14:49:06;2.95;;;0.70;;
11328;SDS011;5719;42.714;23.732;2023-04-15T14:51:33;6.28;;;3.53;;
11328;SDS011;5719;42.714;23.732;2023-04-15T14:54:01;1.55;;;0.80;;
11328;SDS011;5719;42.714;23.732;2023-04-15T14:56:29;3.10;;;1.00;;